EGV72B EDDF-EDDW
Flight info
| Callsign | EGV72B |
|---|---|
| Flight time | 0h 41m |
| Altitude | 20000 |
| Route | MARUN2D MARUN Y153 WRB N850 NIE Z88 VERED VERED3P |
| Aircraft | A320/M-SDE3FGHIRWY/LB1 |
Departure
| Time | 2026-04-17 05:36 |
|---|---|
| Airport | Frankfurt Main Airport (EDDF) |
Arrival
| Time | 2026-04-17 06:18 |
|---|---|
| Airport | Bremen Airport (EDDW) |
| Time | Latitude | Longitude | Altitude | Speed | Heading |
|---|---|---|---|---|---|
| 2026-04-17 05:05 | 50.05005 | 8.58426 | 360 ft | 0 kts | 340° |
| 2026-04-17 05:24 | 50.04986 | 8.58436 | 362 ft | 4 kts | 344° |
| 2026-04-17 05:24 | 50.04960 | 8.58446 | 364 ft | 4 kts | 351° |
| 2026-04-17 05:24 | 50.04933 | 8.58450 | 364 ft | 4 kts | 1° |
| 2026-04-17 05:25 | 50.04907 | 8.58445 | 361 ft | 4 kts | 25° |
| 2026-04-17 05:25 | 50.04893 | 8.58427 | 362 ft | 0 kts | 69° |
| 2026-04-17 05:27 | 50.04893 | 8.58428 | 362 ft | 1 kts | 69° |
| 2026-04-17 05:27 | 50.04904 | 8.58475 | 366 ft | 9 kts | 71° |
| 2026-04-17 05:27 | 50.04929 | 8.58594 | 360 ft | 12 kts | 79° |
| 2026-04-17 05:28 | 50.04893 | 8.58680 | 361 ft | 8 kts | 155° |
| 2026-04-17 05:28 | 50.04857 | 8.58701 | 366 ft | 3 kts | 161° |
| 2026-04-17 05:28 | 50.04842 | 8.58708 | 363 ft | 5 kts | 161° |
| 2026-04-17 05:28 | 50.04763 | 8.58754 | 369 ft | 15 kts | 159° |
| 2026-04-17 05:29 | 50.04680 | 8.58765 | 370 ft | 10 kts | 184° |
| 2026-04-17 05:29 | 50.04615 | 8.58746 | 370 ft | 11 kts | 203° |
| 2026-04-17 05:29 | 50.04541 | 8.58653 | 371 ft | 0 kts | 221° |
| 2026-04-17 05:30 | 50.04536 | 8.58647 | 371 ft | 5 kts | 217° |
| 2026-04-17 05:30 | 50.04439 | 8.58641 | 371 ft | 20 kts | 182° |
| 2026-04-17 05:30 | 50.04293 | 8.58618 | 369 ft | 22 kts | 188° |
| 2026-04-17 05:31 | 50.04203 | 8.58444 | 370 ft | 22 kts | 250° |
| 2026-04-17 05:31 | 50.04147 | 8.58208 | 372 ft | 24 kts | 249° |
| 2026-04-17 05:31 | 50.04087 | 8.57959 | 368 ft | 26 kts | 250° |
| 2026-04-17 05:31 | 50.04022 | 8.57689 | 369 ft | 27 kts | 249° |
| 2026-04-17 05:32 | 50.03954 | 8.57405 | 364 ft | 28 kts | 249° |
| 2026-04-17 05:32 | 50.03885 | 8.57114 | 359 ft | 30 kts | 250° |
| 2026-04-17 05:32 | 50.03813 | 8.56813 | 355 ft | 28 kts | 251° |
| 2026-04-17 05:32 | 50.03743 | 8.56519 | 355 ft | 29 kts | 250° |
| 2026-04-17 05:33 | 50.03670 | 8.56218 | 357 ft | 30 kts | 251° |
| 2026-04-17 05:33 | 50.03596 | 8.55910 | 354 ft | 32 kts | 250° |
| 2026-04-17 05:33 | 50.03518 | 8.55579 | 351 ft | 33 kts | 249° |
| 2026-04-17 05:33 | 50.03436 | 8.55239 | 344 ft | 34 kts | 249° |
| 2026-04-17 05:34 | 50.03353 | 8.54891 | 344 ft | 35 kts | 249° |
| 2026-04-17 05:34 | 50.03268 | 8.54533 | 336 ft | 35 kts | 249° |
| 2026-04-17 05:34 | 50.03182 | 8.54174 | 336 ft | 35 kts | 251° |
| 2026-04-17 05:34 | 50.03102 | 8.53842 | 331 ft | 29 kts | 249° |
| 2026-04-17 05:35 | 50.03073 | 8.53633 | 332 ft | 15 kts | 306° |
| 2026-04-17 05:35 | 50.03163 | 8.53559 | 335 ft | 14 kts | 335° |
| 2026-04-17 05:35 | 50.03258 | 8.53529 | 338 ft | 13 kts | 18° |
| 2026-04-17 05:35 | 50.03303 | 8.53634 | 338 ft | 13 kts | 71° |
| 2026-04-17 05:36 | 50.03376 | 8.53940 | 341 ft | 62 kts | 69° |
| 2026-04-17 05:36 | 50.03602 | 8.54885 | 352 ft | 124 kts | 70° |
| 2026-04-17 05:36 | 50.03965 | 8.56398 | 366 ft | 170 kts | 69° |
| 2026-04-17 05:36 | 50.04386 | 8.58133 | 976 ft | 171 kts | 68° |
| 2026-04-17 05:37 | 50.04781 | 8.59863 | 1733 ft | 170 kts | 72° |
| 2026-04-17 05:37 | 50.05144 | 8.61681 | 2215 ft | 185 kts | 73° |
| 2026-04-17 05:37 | 50.05415 | 8.62992 | 2433 ft | 200 kts | 72° |
| 2026-04-17 05:37 | 50.05899 | 8.65167 | 2784 ft | 223 kts | 71° |
| 2026-04-17 05:38 | 50.06606 | 8.68243 | 3734 ft | 231 kts | 71° |
| 2026-04-17 05:38 | 50.07327 | 8.70499 | 4501 ft | 237 kts | 50° |
| 2026-04-17 05:38 | 50.08665 | 8.72078 | 5020 ft | 255 kts | 24° |
| 2026-04-17 05:38 | 50.09772 | 8.72826 | 5323 ft | 267 kts | 22° |
| 2026-04-17 05:39 | 50.12108 | 8.74367 | 6373 ft | 276 kts | 22° |
| 2026-04-17 05:39 | 50.13285 | 8.75144 | 6927 ft | 279 kts | 22° |
| 2026-04-17 05:39 | 50.15061 | 8.76330 | 7761 ft | 282 kts | 22° |
| 2026-04-17 05:39 | 50.17480 | 8.77958 | 8907 ft | 286 kts | 22° |
| 2026-04-17 05:40 | 50.18716 | 8.78794 | 9487 ft | 288 kts | 22° |
| 2026-04-17 05:40 | 50.20566 | 8.80047 | 10307 ft | 291 kts | 22° |
| 2026-04-17 05:40 | 50.22445 | 8.81320 | 10707 ft | 309 kts | 22° |
| 2026-04-17 05:40 | 50.24490 | 8.82707 | 10929 ft | 333 kts | 22° |
| 2026-04-17 05:41 | 50.26732 | 8.83977 | 11090 ft | 354 kts | 12° |
| 2026-04-17 05:41 | 50.29223 | 8.84399 | 11469 ft | 365 kts | 357° |
| 2026-04-17 05:41 | 50.31756 | 8.83976 | 12099 ft | 368 kts | 351° |
| 2026-04-17 05:41 | 50.34307 | 8.83439 | 12813 ft | 371 kts | 351° |
| 2026-04-17 05:42 | 50.36881 | 8.82900 | 13536 ft | 374 kts | 351° |
| 2026-04-17 05:42 | 50.39470 | 8.82351 | 14221 ft | 377 kts | 350° |
| 2026-04-17 05:42 | 50.42079 | 8.81791 | 14825 ft | 380 kts | 350° |
| 2026-04-17 05:42 | 50.44666 | 8.81237 | 15413 ft | 382 kts | 350° |
| 2026-04-17 05:43 | 50.47318 | 8.80673 | 16012 ft | 386 kts | 350° |
| 2026-04-17 05:43 | 50.49979 | 8.80108 | 16605 ft | 389 kts | 350° |
| 2026-04-17 05:43 | 50.52674 | 8.79536 | 17210 ft | 392 kts | 350° |
| 2026-04-17 05:43 | 50.55386 | 8.78955 | 17798 ft | 395 kts | 350° |
| 2026-04-17 05:44 | 50.58092 | 8.78160 | 18360 ft | 397 kts | 343° |
| 2026-04-17 05:44 | 50.60740 | 8.76955 | 18867 ft | 399 kts | 342° |
| 2026-04-17 05:44 | 50.63419 | 8.75733 | 19366 ft | 402 kts | 342° |
| 2026-04-17 05:44 | 50.66099 | 8.74509 | 19860 ft | 404 kts | 342° |
| 2026-04-17 05:45 | 50.68774 | 8.73285 | 20169 ft | 405 kts | 342° |
| 2026-04-17 05:45 | 50.71494 | 8.72045 | 20243 ft | 412 kts | 342° |
| 2026-04-17 05:45 | 50.74292 | 8.70769 | 20253 ft | 425 kts | 342° |
| 2026-04-17 05:45 | 50.77174 | 8.69488 | 20248 ft | 433 kts | 345° |
| 2026-04-17 05:46 | 50.80166 | 8.68794 | 20246 ft | 438 kts | 354° |
| 2026-04-17 05:46 | 50.84212 | 8.69160 | 20249 ft | 443 kts | 7° |
| 2026-04-17 05:46 | 50.86238 | 8.69909 | 20251 ft | 445 kts | 14° |
| 2026-04-17 05:46 | 50.89111 | 8.71589 | 20250 ft | 447 kts | 19° |
| 2026-04-17 05:47 | 50.91979 | 8.73403 | 20250 ft | 447 kts | 19° |
| 2026-04-17 05:47 | 50.94886 | 8.75251 | 20251 ft | 447 kts | 19° |
| 2026-04-17 05:47 | 50.97773 | 8.77091 | 20251 ft | 447 kts | 19° |
| 2026-04-17 05:47 | 51.00656 | 8.78927 | 20251 ft | 447 kts | 19° |
| 2026-04-17 05:48 | 51.03548 | 8.80771 | 20249 ft | 447 kts | 19° |
| 2026-04-17 05:48 | 51.06432 | 8.82610 | 20252 ft | 447 kts | 19° |
| 2026-04-17 05:48 | 51.09323 | 8.84454 | 20255 ft | 447 kts | 19° |
| 2026-04-17 05:48 | 51.12206 | 8.86292 | 20254 ft | 447 kts | 19° |
| 2026-04-17 05:49 | 51.15092 | 8.88134 | 20250 ft | 447 kts | 19° |
| 2026-04-17 05:49 | 51.17940 | 8.89958 | 20252 ft | 447 kts | 19° |
| 2026-04-17 05:49 | 51.20826 | 8.91817 | 20250 ft | 447 kts | 19° |
| 2026-04-17 05:49 | 51.23710 | 8.93679 | 20250 ft | 447 kts | 19° |
| 2026-04-17 05:50 | 51.26596 | 8.95541 | 20255 ft | 447 kts | 19° |
| 2026-04-17 05:50 | 51.29481 | 8.97401 | 20251 ft | 447 kts | 19° |
| 2026-04-17 05:50 | 51.32366 | 8.99262 | 20254 ft | 447 kts | 19° |
| 2026-04-17 05:50 | 51.35248 | 9.01124 | 20249 ft | 447 kts | 19° |
| 2026-04-17 05:51 | 51.38139 | 9.02996 | 20250 ft | 447 kts | 19° |
| 2026-04-17 05:51 | 51.40985 | 9.04842 | 20247 ft | 447 kts | 19° |
| 2026-04-17 05:51 | 51.43866 | 9.06717 | 20246 ft | 448 kts | 19° |
| 2026-04-17 05:51 | 51.46740 | 9.08590 | 20245 ft | 448 kts | 19° |
| 2026-04-17 05:52 | 51.49655 | 9.10385 | 20239 ft | 446 kts | 15° |
| 2026-04-17 05:52 | 51.52657 | 9.11530 | 20251 ft | 443 kts | 6° |
| 2026-04-17 05:52 | 51.55716 | 9.12189 | 20253 ft | 443 kts | 5° |
| 2026-04-17 05:52 | 51.58767 | 9.12838 | 20249 ft | 443 kts | 5° |
| 2026-04-17 05:53 | 51.61817 | 9.13496 | 20250 ft | 443 kts | 5° |
| 2026-04-17 05:53 | 51.64876 | 9.14163 | 20247 ft | 443 kts | 5° |
| 2026-04-17 05:53 | 51.67866 | 9.14817 | 20246 ft | 443 kts | 5° |
| 2026-04-17 05:53 | 51.70946 | 9.15491 | 20251 ft | 443 kts | 5° |
| 2026-04-17 05:54 | 51.73990 | 9.16152 | 20244 ft | 443 kts | 5° |
| 2026-04-17 05:54 | 51.77041 | 9.16812 | 20249 ft | 443 kts | 5° |
| 2026-04-17 05:54 | 51.80106 | 9.17471 | 20245 ft | 443 kts | 5° |
| 2026-04-17 05:54 | 51.83176 | 9.18137 | 20245 ft | 444 kts | 5° |
| 2026-04-17 05:55 | 51.86232 | 9.18802 | 20253 ft | 444 kts | 5° |
| 2026-04-17 05:55 | 51.89295 | 9.19474 | 20250 ft | 444 kts | 5° |
| 2026-04-17 05:55 | 51.92355 | 9.20202 | 20247 ft | 444 kts | 6° |
| 2026-04-17 05:55 | 51.95402 | 9.20988 | 20246 ft | 444 kts | 7° |
| 2026-04-17 05:56 | 51.98415 | 9.21798 | 20249 ft | 444 kts | 7° |
| 2026-04-17 05:56 | 52.01464 | 9.22629 | 20253 ft | 445 kts | 7° |
| 2026-04-17 05:56 | 52.04514 | 9.23458 | 20254 ft | 445 kts | 7° |
| 2026-04-17 05:56 | 52.07574 | 9.24224 | 20253 ft | 444 kts | 5° |
| 2026-04-17 05:57 | 52.10639 | 9.24846 | 20252 ft | 444 kts | 4° |
| 2026-04-17 05:57 | 52.13665 | 9.25364 | 20254 ft | 443 kts | 3° |
| 2026-04-17 05:57 | 52.16780 | 9.25858 | 20259 ft | 443 kts | 3° |
| 2026-04-17 05:57 | 52.19847 | 9.26348 | 20254 ft | 443 kts | 3° |
| 2026-04-17 05:58 | 52.22915 | 9.26860 | 20259 ft | 444 kts | 4° |
| 2026-04-17 05:58 | 52.25985 | 9.27465 | 20256 ft | 444 kts | 5° |
| 2026-04-17 05:58 | 52.29001 | 9.28202 | 20258 ft | 444 kts | 7° |
| 2026-04-17 05:59 | 52.35094 | 9.29918 | 20258 ft | 445 kts | 7° |
| 2026-04-17 05:59 | 52.38146 | 9.30790 | 20009 ft | 445 kts | 7° |
| 2026-04-17 05:59 | 52.41206 | 9.31636 | 18980 ft | 447 kts | 7° |
| 2026-04-17 05:59 | 52.44247 | 9.32445 | 18216 ft | 440 kts | 7° |
| 2026-04-17 06:00 | 52.47271 | 9.33231 | 17451 ft | 436 kts | 7° |
| 2026-04-17 06:00 | 52.50249 | 9.33996 | 16620 ft | 432 kts | 7° |
| 2026-04-17 06:00 | 52.53164 | 9.34743 | 15934 ft | 426 kts | 7° |
| 2026-04-17 06:00 | 52.56059 | 9.35493 | 15031 ft | 416 kts | 7° |
| 2026-04-17 06:01 | 52.58815 | 9.36202 | 14316 ft | 416 kts | 6° |
| 2026-04-17 06:01 | 52.61756 | 9.36431 | 13621 ft | 409 kts | 355° |
| 2026-04-17 06:01 | 52.64545 | 9.35818 | 12991 ft | 401 kts | 346° |
| 2026-04-17 06:01 | 52.67189 | 9.34478 | 12391 ft | 395 kts | 338° |
| 2026-04-17 06:02 | 52.69749 | 9.32934 | 11766 ft | 389 kts | 338° |
| 2026-04-17 06:02 | 52.72246 | 9.31433 | 11327 ft | 380 kts | 339° |
| 2026-04-17 06:02 | 52.74692 | 9.29968 | 11188 ft | 362 kts | 339° |
| 2026-04-17 06:02 | 52.76972 | 9.28604 | 11075 ft | 346 kts | 339° |
| 2026-04-17 06:03 | 52.79187 | 9.27277 | 10954 ft | 331 kts | 338° |
| 2026-04-17 06:03 | 52.81306 | 9.26001 | 10827 ft | 318 kts | 338° |
| 2026-04-17 06:03 | 52.83344 | 9.24772 | 10708 ft | 306 kts | 338° |
| 2026-04-17 06:03 | 52.85307 | 9.23586 | 10591 ft | 295 kts | 338° |
| 2026-04-17 06:04 | 52.87193 | 9.22391 | 10368 ft | 287 kts | 332° |
| 2026-04-17 06:04 | 52.88862 | 9.20670 | 10314 ft | 282 kts | 320° |
| 2026-04-17 06:04 | 52.90245 | 9.18375 | 10197 ft | 281 kts | 307° |
| 2026-04-17 06:04 | 52.91295 | 9.15652 | 10076 ft | 281 kts | 298° |
| 2026-04-17 06:05 | 52.92250 | 9.12831 | 9894 ft | 281 kts | 298° |
| 2026-04-17 06:05 | 52.93205 | 9.10014 | 9396 ft | 284 kts | 298° |
| 2026-04-17 06:05 | 52.94169 | 9.07173 | 8897 ft | 286 kts | 298° |
| 2026-04-17 06:05 | 52.95137 | 9.04320 | 8608 ft | 280 kts | 298° |
| 2026-04-17 06:06 | 52.96082 | 9.01523 | 8089 ft | 279 kts | 298° |
| 2026-04-17 06:06 | 52.97025 | 8.98728 | 7686 ft | 277 kts | 298° |
| 2026-04-17 06:06 | 52.97964 | 8.95946 | 7291 ft | 276 kts | 298° |
| 2026-04-17 06:06 | 52.98898 | 8.93174 | 6818 ft | 272 kts | 298° |
| 2026-04-17 06:07 | 52.99818 | 8.90436 | 6102 ft | 271 kts | 298° |
| 2026-04-17 06:07 | 53.00731 | 8.87709 | 5455 ft | 269 kts | 298° |
| 2026-04-17 06:07 | 53.01622 | 8.85050 | 4962 ft | 267 kts | 298° |
| 2026-04-17 06:07 | 53.02524 | 8.82357 | 4476 ft | 266 kts | 298° |
| 2026-04-17 06:08 | 53.03417 | 8.79687 | 4021 ft | 265 kts | 298° |
| 2026-04-17 06:08 | 53.04223 | 8.76917 | 3561 ft | 266 kts | 287° |
| 2026-04-17 06:08 | 53.04554 | 8.73919 | 3159 ft | 261 kts | 270° |
| 2026-04-17 06:08 | 53.04494 | 8.71010 | 3098 ft | 244 kts | 266° |
| 2026-04-17 06:09 | 53.04430 | 8.68266 | 3032 ft | 231 kts | 266° |
| 2026-04-17 06:09 | 53.04372 | 8.65643 | 2940 ft | 225 kts | 266° |
| 2026-04-17 06:09 | 53.04314 | 8.63087 | 2852 ft | 224 kts | 266° |
| 2026-04-17 06:09 | 53.04255 | 8.60512 | 2759 ft | 223 kts | 266° |
| 2026-04-17 06:10 | 53.04195 | 8.57926 | 2647 ft | 223 kts | 265° |
| 2026-04-17 06:10 | 53.04155 | 8.55347 | 2553 ft | 223 kts | 271° |
| 2026-04-17 06:10 | 53.04601 | 8.52909 | 2232 ft | 224 kts | 304° |
| 2026-04-17 06:10 | 53.05713 | 8.51125 | 2023 ft | 221 kts | 322° |
| 2026-04-17 06:11 | 53.06838 | 8.49456 | 1869 ft | 212 kts | 302° |
| 2026-04-17 06:11 | 53.07251 | 8.47212 | 1765 ft | 201 kts | 263° |
| 2026-04-17 06:11 | 53.06779 | 8.45133 | 1684 ft | 191 kts | 224° |
| 2026-04-17 06:11 | 53.05663 | 8.44076 | 1698 ft | 186 kts | 185° |
| 2026-04-17 06:12 | 53.04409 | 8.44244 | 1730 ft | 175 kts | 163° |
| 2026-04-17 06:12 | 53.03403 | 8.45107 | 1696 ft | 160 kts | 130° |
| 2026-04-17 06:12 | 53.03191 | 8.46754 | 1684 ft | 150 kts | 71° |
| 2026-04-17 06:12 | 53.03768 | 8.48168 | 1709 ft | 146 kts | 60° |
| 2026-04-17 06:13 | 53.03927 | 8.49706 | 1704 ft | 135 kts | 104° |
| 2026-04-17 06:13 | 53.03897 | 8.51273 | 1723 ft | 140 kts | 80° |
| 2026-04-17 06:13 | 53.04042 | 8.52859 | 1706 ft | 138 kts | 90° |
| 2026-04-17 06:13 | 53.04094 | 8.54455 | 1704 ft | 138 kts | 90° |
| 2026-04-17 06:14 | 53.04139 | 8.56050 | 1704 ft | 138 kts | 90° |
| 2026-04-17 06:14 | 53.04182 | 8.57642 | 1708 ft | 138 kts | 90° |
| 2026-04-17 06:14 | 53.04222 | 8.59234 | 1706 ft | 138 kts | 91° |
| 2026-04-17 06:14 | 53.04261 | 8.60802 | 1708 ft | 138 kts | 91° |
| 2026-04-17 06:15 | 53.04300 | 8.62394 | 1704 ft | 138 kts | 91° |
| 2026-04-17 06:15 | 53.04339 | 8.63987 | 1609 ft | 138 kts | 90° |
| 2026-04-17 06:15 | 53.04377 | 8.65571 | 1460 ft | 137 kts | 91° |
| 2026-04-17 06:15 | 53.04415 | 8.67151 | 1301 ft | 136 kts | 91° |
| 2026-04-17 06:16 | 53.04452 | 8.68681 | 1115 ft | 135 kts | 90° |
| 2026-04-17 06:16 | 53.04490 | 8.70275 | 918 ft | 135 kts | 90° |
| 2026-04-17 06:16 | 53.04525 | 8.71830 | 732 ft | 134 kts | 90° |
| 2026-04-17 06:16 | 53.04571 | 8.73381 | 549 ft | 135 kts | 88° |
| 2026-04-17 06:17 | 53.04600 | 8.74919 | 377 ft | 135 kts | 89° |
| 2026-04-17 06:17 | 53.04637 | 8.76476 | 177 ft | 134 kts | 88° |
| 2026-04-17 06:17 | 53.04668 | 8.78006 | 23 ft | 131 kts | 89° |
| 2026-04-17 06:17 | 53.04695 | 8.79099 | 23 ft | 51 kts | 87° |
| 2026-04-17 06:18 | 53.04703 | 8.79455 | 23 ft | 28 kts | 87° |
| 2026-04-17 06:18 | 53.04710 | 8.79771 | 22 ft | 27 kts | 88° |
| 2026-04-17 06:18 | 53.04779 | 8.79973 | 27 ft | 13 kts | 16° |
| 2026-04-17 06:18 | 53.04830 | 8.79953 | 24 ft | 7 kts | 331° |
| 2026-04-17 06:19 | 53.04864 | 8.79905 | 24 ft | 6 kts | 307° |
| 2026-04-17 06:19 | 53.04876 | 8.79797 | 27 ft | 10 kts | 269° |
| 2026-04-17 06:19 | 53.04876 | 8.79793 | 28 ft | 0 kts | 268° |
| 2026-04-17 06:21 | 53.04875 | 8.79776 | 26 ft | 6 kts | 268° |
| 2026-04-17 06:21 | 53.04873 | 8.79646 | 31 ft | 14 kts | 267° |
| 2026-04-17 06:21 | 53.04867 | 8.79437 | 24 ft | 22 kts | 267° |
| 2026-04-17 06:22 | 53.04863 | 8.79172 | 23 ft | 24 kts | 266° |
| 2026-04-17 06:22 | 53.04869 | 8.78912 | 19 ft | 22 kts | 301° |
| 2026-04-17 06:22 | 53.04981 | 8.78734 | 18 ft | 20 kts | 313° |
| 2026-04-17 06:22 | 53.05024 | 8.78599 | 20 ft | 7 kts | 304° |
| 2026-04-17 06:23 | 53.05049 | 8.78557 | 19 ft | 5 kts | 331° |
| 2026-04-17 06:23 | 53.05088 | 8.78613 | 19 ft | 9 kts | 51° |
| 2026-04-17 06:23 | 53.05104 | 8.78644 | 19 ft | 1 kts | 49° |
| 2026-04-17 06:23 | 53.05108 | 8.78651 | 19 ft | 0 kts | 49° |